sensor_id;sensor_type;location;lat;lon;timestamp;P1;durP1;ratioP1;P2;durP2;ratioP2
75916;SDS011;64595;50.148;14.334;2023-07-13T00:02:10;7.05;;;5.00;;
75916;SDS011;64595;50.148;14.334;2023-07-13T00:04:35;6.38;;;5.13;;
75916;SDS011;64595;50.148;14.334;2023-07-13T00:07:01;6.78;;;4.68;;
75916;SDS011;64595;50.148;14.334;2023-07-13T00:09:26;8.82;;;5.53;;
75916;SDS011;64595;50.148;14.334;2023-07-13T00:11:54;6.93;;;5.55;;
75916;SDS011;64595;50.148;14.334;2023-07-13T00:14:20;6.28;;;4.82;;
75916;SDS011;64595;50.148;14.334;2023-07-13T00:16:46;8.15;;;5.45;;
75916;SDS011;64595;50.148;14.334;2023-07-13T00:19:12;6.45;;;5.53;;
75916;SDS011;64595;50.148;14.334;2023-07-13T00:21:38;7.35;;;5.85;;
75916;SDS011;64595;50.148;14.334;2023-07-13T00:24:04;7.65;;;6.60;;
75916;SDS011;64595;50.148;14.334;2023-07-13T00:26:30;6.80;;;5.20;;
75916;SDS011;64595;50.148;14.334;2023-07-13T00:28:57;7.22;;;5.38;;
75916;SDS011;64595;50.148;14.334;2023-07-13T00:31:22;8.75;;;6.07;;
75916;SDS011;64595;50.148;14.334;2023-07-13T00:33:48;7.72;;;5.70;;
75916;SDS011;64595;50.148;14.334;2023-07-13T00:36:13;7.22;;;6.38;;
75916;SDS011;64595;50.148;14.334;2023-07-13T00:38:39;7.82;;;6.35;;
75916;SDS011;64595;50.148;14.334;2023-07-13T00:41:04;9.95;;;6.57;;
75916;SDS011;64595;50.148;14.334;2023-07-13T00:43:30;8.52;;;6.43;;
75916;SDS011;64595;50.148;14.334;2023-07-13T00:46:12;7.03;;;6.15;;
75916;SDS011;64595;50.148;14.334;2023-07-13T00:48:42;8.30;;;6.53;;
75916;SDS011;64595;50.148;14.334;2023-07-13T00:51:08;8.65;;;6.38;;
75916;SDS011;64595;50.148;14.334;2023-07-13T00:53:33;8.43;;;6.30;;
75916;SDS011;64595;50.148;14.334;2023-07-13T00:55:59;7.57;;;6.22;;
75916;SDS011;64595;50.148;14.334;2023-07-13T00:58:25;8.32;;;7.15;;
75916;SDS011;64595;50.148;14.334;2023-07-13T01:00:50;8.13;;;6.40;;
75916;SDS011;64595;50.148;14.334;2023-07-13T01:03:17;7.43;;;6.43;;
75916;SDS011;64595;50.148;14.334;2023-07-13T01:05:43;8.90;;;6.97;;
75916;SDS011;64595;50.148;14.334;2023-07-13T01:08:11;9.32;;;6.55;;
75916;SDS011;64595;50.148;14.334;2023-07-13T01:10:39;9.05;;;6.85;;
75916;SDS011;64595;50.148;14.334;2023-07-13T01:13:04;7.55;;;6.10;;
75916;SDS011;64595;50.148;14.334;2023-07-13T01:15:36;9.05;;;6.75;;
75916;SDS011;64595;50.148;14.334;2023-07-13T01:18:03;8.95;;;6.95;;
75916;SDS011;64595;50.148;14.334;2023-07-13T01:20:30;9.38;;;7.43;;
75916;SDS011;64595;50.148;14.334;2023-07-13T01:22:57;8.30;;;5.78;;
75916;SDS011;64595;50.148;14.334;2023-07-13T01:25:22;8.20;;;6.55;;
75916;SDS011;64595;50.148;14.334;2023-07-13T01:27:48;7.75;;;6.53;;
75916;SDS011;64595;50.148;14.334;2023-07-13T01:30:13;9.35;;;6.85;;
75916;SDS011;64595;50.148;14.334;2023-07-13T01:32:39;8.68;;;6.53;;
75916;SDS011;64595;50.148;14.334;2023-07-13T01:35:04;9.98;;;7.30;;
75916;SDS011;64595;50.148;14.334;2023-07-13T01:37:30;9.23;;;6.38;;
75916;SDS011;64595;50.148;14.334;2023-07-13T01:39:57;12.18;;;7.35;;
75916;SDS011;64595;50.148;14.334;2023-07-13T01:42:23;9.50;;;7.43;;
75916;SDS011;64595;50.148;14.334;2023-07-13T01:44:48;9.38;;;7.75;;
75916;SDS011;64595;50.148;14.334;2023-07-13T01:47:14;8.52;;;7.30;;
75916;SDS011;64595;50.148;14.334;2023-07-13T01:49:39;10.07;;;7.60;;
75916;SDS011;64595;50.148;14.334;2023-07-13T01:52:05;11.65;;;7.75;;
75916;SDS011;64595;50.148;14.334;2023-07-13T01:54:31;9.90;;;7.38;;
75916;SDS011;64595;50.148;14.334;2023-07-13T01:56:58;10.02;;;7.80;;
75916;SDS011;64595;50.148;14.334;2023-07-13T01:59:23;9.15;;;7.13;;
75916;SDS011;64595;50.148;14.334;2023-07-13T02:01:48;9.05;;;8.13;;
75916;SDS011;64595;50.148;14.334;2023-07-13T02:04:14;10.63;;;8.02;;
75916;SDS011;64595;50.148;14.334;2023-07-13T02:06:46;10.05;;;8.10;;
75916;SDS011;64595;50.148;14.334;2023-07-13T02:09:12;10.07;;;8.07;;
75916;SDS011;64595;50.148;14.334;2023-07-13T02:11:37;10.93;;;8.38;;
75916;SDS011;64595;50.148;14.334;2023-07-13T02:14:04;11.95;;;8.43;;
75916;SDS011;64595;50.148;14.334;2023-07-13T02:16:29;9.43;;;8.02;;
75916;SDS011;64595;50.148;14.334;2023-07-13T02:18:55;10.77;;;8.20;;
75916;SDS011;64595;50.148;14.334;2023-07-13T02:21:21;11.88;;;9.02;;
75916;SDS011;64595;50.148;14.334;2023-07-13T02:23:46;10.02;;;9.00;;
75916;SDS011;64595;50.148;14.334;2023-07-13T02:26:12;10.02;;;8.25;;
75916;SDS011;64595;50.148;14.334;2023-07-13T02:28:38;11.82;;;8.43;;
75916;SDS011;64595;50.148;14.334;2023-07-13T02:31:05;11.77;;;9.00;;
75916;SDS011;64595;50.148;14.334;2023-07-13T02:33:31;13.15;;;9.38;;
75916;SDS011;64595;50.148;14.334;2023-07-13T02:35:57;9.75;;;8.48;;
75916;SDS011;64595;50.148;14.334;2023-07-13T02:38:22;11.45;;;9.93;;
75916;SDS011;64595;50.148;14.334;2023-07-13T02:40:48;10.73;;;8.63;;
75916;SDS011;64595;50.148;14.334;2023-07-13T02:43:13;11.43;;;9.18;;
75916;SDS011;64595;50.148;14.334;2023-07-13T02:45:43;10.75;;;8.85;;
75916;SDS011;64595;50.148;14.334;2023-07-13T02:48:10;9.73;;;8.48;;
75916;SDS011;64595;50.148;14.334;2023-07-13T02:50:35;10.95;;;9.05;;
75916;SDS011;64595;50.148;14.334;2023-07-13T02:53:01;10.70;;;8.70;;
75916;SDS011;64595;50.148;14.334;2023-07-13T02:55:26;12.80;;;8.45;;
75916;SDS011;64595;50.148;14.334;2023-07-13T02:57:51;11.02;;;8.25;;
75916;SDS011;64595;50.148;14.334;2023-07-13T03:00:17;10.73;;;8.13;;
75916;SDS011;64595;50.148;14.334;2023-07-13T03:02:43;10.70;;;8.13;;
75916;SDS011;64595;50.148;14.334;2023-07-13T03:05:10;11.50;;;7.47;;
75916;SDS011;64595;50.148;14.334;2023-07-13T03:07:35;14.68;;;8.32;;
75916;SDS011;64595;50.148;14.334;2023-07-13T03:10:01;10.02;;;7.57;;
75916;SDS011;64595;50.148;14.334;2023-07-13T03:12:26;10.10;;;8.02;;
75916;SDS011;64595;50.148;14.334;2023-07-13T03:14:52;11.43;;;8.20;;
75916;SDS011;64595;50.148;14.334;2023-07-13T03:17:17;11.10;;;8.70;;
75916;SDS011;64595;50.148;14.334;2023-07-13T03:19:43;16.52;;;8.80;;
75916;SDS011;64595;50.148;14.334;2023-07-13T03:22:09;11.43;;;7.55;;
75916;SDS011;64595;50.148;14.334;2023-07-13T03:24:35;9.23;;;7.15;;
75916;SDS011;64595;50.148;14.334;2023-07-13T03:27:04;7.95;;;6.35;;
75916;SDS011;64595;50.148;14.334;2023-07-13T03:29:30;6.50;;;5.82;;
75916;SDS011;64595;50.148;14.334;2023-07-13T03:31:56;6.68;;;5.45;;
75916;SDS011;64595;50.148;14.334;2023-07-13T03:34:21;7.72;;;4.57;;
75916;SDS011;64595;50.148;14.334;2023-07-13T03:36:47;5.43;;;3.85;;
75916;SDS011;64595;50.148;14.334;2023-07-13T03:39:14;5.80;;;3.97;;
75916;SDS011;64595;50.148;14.334;2023-07-13T03:41:39;4.65;;;3.72;;
75916;SDS011;64595;50.148;14.334;2023-07-13T03:44:05;6.10;;;3.47;;
75916;SDS011;64595;50.148;14.334;2023-07-13T03:46:31;5.43;;;3.30;;
75916;SDS011;64595;50.148;14.334;2023-07-13T03:48:56;5.72;;;3.80;;
75916;SDS011;64595;50.148;14.334;2023-07-13T03:51:22;7.32;;;3.42;;
75916;SDS011;64595;50.148;14.334;2023-07-13T03:53:48;4.47;;;3.53;;
75916;SDS011;64595;50.148;14.334;2023-07-13T03:56:15;4.25;;;3.25;;
75916;SDS011;64595;50.148;14.334;2023-07-13T03:58:41;4.50;;;3.72;;
75916;SDS011;64595;50.148;14.334;2023-07-13T04:01:09;4.85;;;3.63;;
75916;SDS011;64595;50.148;14.334;2023-07-13T04:03:35;5.60;;;3.80;;
75916;SDS011;64595;50.148;14.334;2023-07-13T04:06:01;4.90;;;3.50;;
75916;SDS011;64595;50.148;14.334;2023-07-13T04:08:28;5.53;;;3.40;;
75916;SDS011;64595;50.148;14.334;2023-07-13T04:10:54;4.95;;;3.28;;
75916;SDS011;64595;50.148;14.334;2023-07-13T04:13:21;8.35;;;3.72;;
75916;SDS011;64595;50.148;14.334;2023-07-13T04:15:47;4.55;;;3.67;;
75916;SDS011;64595;50.148;14.334;2023-07-13T04:18:12;5.68;;;3.70;;
75916;SDS011;64595;50.148;14.334;2023-07-13T04:20:38;6.45;;;3.83;;
75916;SDS011;64595;50.148;14.334;2023-07-13T04:23:03;6.00;;;3.47;;
75916;SDS011;64595;50.148;14.334;2023-07-13T04:25:29;8.00;;;3.80;;
75916;SDS011;64595;50.148;14.334;2023-07-13T04:27:54;6.30;;;3.67;;
75916;SDS011;64595;50.148;14.334;2023-07-13T04:30:22;4.35;;;3.75;;
75916;SDS011;64595;50.148;14.334;2023-07-13T04:35:12;7.30;;;3.87;;
75916;SDS011;64595;50.148;14.334;2023-07-13T04:37:38;4.18;;;3.60;;
75916;SDS011;64595;50.148;14.334;2023-07-13T04:40:04;5.55;;;3.97;;
75916;SDS011;64595;50.148;14.334;2023-07-13T04:42:30;5.40;;;4.10;;
75916;SDS011;64595;50.148;14.334;2023-07-13T04:44:55;5.32;;;4.05;;
75916;SDS011;64595;50.148;14.334;2023-07-13T04:47:22;5.47;;;4.72;;
75916;SDS011;64595;50.148;14.334;2023-07-13T04:49:48;4.75;;;4.25;;
75916;SDS011;64595;50.148;14.334;2023-07-13T04:52:13;6.70;;;4.90;;
75916;SDS011;64595;50.148;14.334;2023-07-13T04:54:39;6.15;;;4.35;;
75916;SDS011;64595;50.148;14.334;2023-07-13T04:57:05;5.88;;;4.20;;
75916;SDS011;64595;50.148;14.334;2023-07-13T04:59:31;5.78;;;4.43;;
75916;SDS011;64595;50.148;14.334;2023-07-13T05:01:56;6.40;;;4.10;;
75916;SDS011;64595;50.148;14.334;2023-07-13T05:04:23;7.10;;;4.07;;
75916;SDS011;64595;50.148;14.334;2023-07-13T05:06:49;4.82;;;4.22;;
75916;SDS011;64595;50.148;14.334;2023-07-13T05:09:14;6.03;;;4.47;;
75916;SDS011;64595;50.148;14.334;2023-07-13T05:11:40;4.38;;;3.72;;
75916;SDS011;64595;50.148;14.334;2023-07-13T05:14:05;6.35;;;4.20;;
75916;SDS011;64595;50.148;14.334;2023-07-13T05:16:31;9.13;;;4.00;;
75916;SDS011;64595;50.148;14.334;2023-07-13T05:18:56;6.25;;;3.85;;
75916;SDS011;64595;50.148;14.334;2023-07-13T05:21:23;6.70;;;4.20;;
75916;SDS011;64595;50.148;14.334;2023-07-13T05:23:49;6.13;;;4.63;;
75916;SDS011;64595;50.148;14.334;2023-07-13T05:26:14;5.30;;;4.32;;
75916;SDS011;64595;50.148;14.334;2023-07-13T05:28:40;5.05;;;3.83;;
75916;SDS011;64595;50.148;14.334;2023-07-13T05:31:06;4.43;;;3.75;;
75916;SDS011;64595;50.148;14.334;2023-07-13T05:33:32;5.50;;;4.03;;
75916;SDS011;64595;50.148;14.334;2023-07-13T05:35:57;8.32;;;5.00;;
75916;SDS011;64595;50.148;14.334;2023-07-13T05:38:24;5.18;;;4.22;;
75916;SDS011;64595;50.148;14.334;2023-07-13T05:40:50;6.72;;;4.13;;
75916;SDS011;64595;50.148;14.334;2023-07-13T05:43:15;5.57;;;3.95;;
75916;SDS011;64595;50.148;14.334;2023-07-13T05:45:41;5.63;;;3.97;;
75916;SDS011;64595;50.148;14.334;2023-07-13T05:48:06;5.75;;;4.15;;
75916;SDS011;64595;50.148;14.334;2023-07-13T05:50:32;6.20;;;4.40;;
75916;SDS011;64595;50.148;14.334;2023-07-13T05:52:57;4.65;;;4.05;;
75916;SDS011;64595;50.148;14.334;2023-07-13T05:55:24;7.22;;;4.20;;
75916;SDS011;64595;50.148;14.334;2023-07-13T05:57:50;6.28;;;4.20;;
75916;SDS011;64595;50.148;14.334;2023-07-13T06:00:15;5.20;;;3.63;;
75916;SDS011;64595;50.148;14.334;2023-07-13T06:02:41;5.82;;;3.95;;
75916;SDS011;64595;50.148;14.334;2023-07-13T06:05:07;6.97;;;4.25;;
75916;SDS011;64595;50.148;14.334;2023-07-13T06:07:33;5.90;;;4.60;;
75916;SDS011;64595;50.148;14.334;2023-07-13T06:09:58;8.85;;;4.35;;
75916;SDS011;64595;50.148;14.334;2023-07-13T06:12:25;5.13;;;4.32;;
75916;SDS011;64595;50.148;14.334;2023-07-13T06:14:51;7.03;;;4.15;;
75916;SDS011;64595;50.148;14.334;2023-07-13T06:17:16;8.45;;;5.05;;
75916;SDS011;64595;50.148;14.334;2023-07-13T06:19:42;9.75;;;4.22;;
75916;SDS011;64595;50.148;14.334;2023-07-13T06:22:07;5.20;;;3.42;;
75916;SDS011;64595;50.148;14.334;2023-07-13T06:24:33;6.07;;;4.13;;
75916;SDS011;64595;50.148;14.334;2023-07-13T06:26:58;5.78;;;3.55;;
75916;SDS011;64595;50.148;14.334;2023-07-13T06:29:25;5.43;;;3.92;;
75916;SDS011;64595;50.148;14.334;2023-07-13T06:31:50;5.47;;;3.65;;
75916;SDS011;64595;50.148;14.334;2023-07-13T06:34:16;4.18;;;3.17;;
75916;SDS011;64595;50.148;14.334;2023-07-13T06:36:41;6.45;;;3.63;;
75916;SDS011;64595;50.148;14.334;2023-07-13T06:39:07;4.78;;;3.67;;
75916;SDS011;64595;50.148;14.334;2023-07-13T06:41:32;4.25;;;3.63;;
75916;SDS011;64595;50.148;14.334;2023-07-13T06:43:58;5.20;;;3.28;;
75916;SDS011;64595;50.148;14.334;2023-07-13T06:46:25;4.28;;;3.28;;
75916;SDS011;64595;50.148;14.334;2023-07-13T06:48:51;5.25;;;4.15;;
75916;SDS011;64595;50.148;14.334;2023-07-13T06:51:16;4.20;;;3.78;;
75916;SDS011;64595;50.148;14.334;2023-07-13T06:53:42;6.30;;;3.60;;
75916;SDS011;64595;50.148;14.334;2023-07-13T06:56:07;7.30;;;3.63;;
75916;SDS011;64595;50.148;14.334;2023-07-13T06:58:33;4.32;;;3.40;;
75916;SDS011;64595;50.148;14.334;2023-07-13T07:01:02;5.80;;;3.40;;
75916;SDS011;64595;50.148;14.334;2023-07-13T07:03:29;4.82;;;3.65;;
75916;SDS011;64595;50.148;14.334;2023-07-13T07:05:59;4.28;;;3.22;;
75916;SDS011;64595;50.148;14.334;2023-07-13T07:08:25;6.55;;;3.40;;
75916;SDS011;64595;50.148;14.334;2023-07-13T07:10:51;5.30;;;3.55;;
75916;SDS011;64595;50.148;14.334;2023-07-13T07:13:16;5.38;;;3.15;;
75916;SDS011;64595;50.148;14.334;2023-07-13T07:15:42;5.32;;;3.25;;
75916;SDS011;64595;50.148;14.334;2023-07-13T07:18:07;4.90;;;3.30;;
75916;SDS011;64595;50.148;14.334;2023-07-13T07:20:34;5.18;;;3.25;;
75916;SDS011;64595;50.148;14.334;2023-07-13T07:22:59;4.72;;;3.33;;
75916;SDS011;64595;50.148;14.334;2023-07-13T07:25:25;4.30;;;3.30;;
75916;SDS011;64595;50.148;14.334;2023-07-13T07:27:51;7.32;;;3.47;;
75916;SDS011;64595;50.148;14.334;2023-07-13T07:30:16;4.50;;;3.13;;
75916;SDS011;64595;50.148;14.334;2023-07-13T07:32:42;5.45;;;3.20;;
75916;SDS011;64595;50.148;14.334;2023-07-13T07:35:07;4.00;;;3.60;;
75916;SDS011;64595;50.148;14.334;2023-07-13T07:37:34;4.43;;;3.50;;
75916;SDS011;64595;50.148;14.334;2023-07-13T07:40:00;5.70;;;3.33;;
75916;SDS011;64595;50.148;14.334;2023-07-13T07:42:25;6.63;;;3.60;;
75916;SDS011;64595;50.148;14.334;2023-07-13T07:44:51;5.85;;;3.60;;
75916;SDS011;64595;50.148;14.334;2023-07-13T07:47:16;5.15;;;3.50;;
75916;SDS011;64595;50.148;14.334;2023-07-13T07:49:42;4.22;;;3.20;;
75916;SDS011;64595;50.148;14.334;2023-07-13T07:52:08;4.28;;;3.30;;
75916;SDS011;64595;50.148;14.334;2023-07-13T07:54:34;3.88;;;3.25;;
75916;SDS011;64595;50.148;14.334;2023-07-13T07:57:00;4.55;;;3.20;;
75916;SDS011;64595;50.148;14.334;2023-07-13T07:59:26;5.03;;;3.42;;
75916;SDS011;64595;50.148;14.334;2023-07-13T08:01:51;6.78;;;3.30;;
75916;SDS011;64595;50.148;14.334;2023-07-13T08:04:17;8.77;;;3.65;;
75916;SDS011;64595;50.148;14.334;2023-07-13T08:06:42;7.07;;;3.60;;
75916;SDS011;64595;50.148;14.334;2023-07-13T08:09:08;6.80;;;3.45;;
75916;SDS011;64595;50.148;14.334;2023-07-13T08:11:35;3.83;;;2.90;;
75916;SDS011;64595;50.148;14.334;2023-07-13T08:14:01;4.32;;;3.13;;
75916;SDS011;64595;50.148;14.334;2023-07-13T08:16:26;3.83;;;3.10;;
75916;SDS011;64595;50.148;14.334;2023-07-13T08:18:52;11.07;;;3.08;;
75916;SDS011;64595;50.148;14.334;2023-07-13T08:21:17;3.95;;;2.75;;
75916;SDS011;64595;50.148;14.334;2023-07-13T08:23:43;5.20;;;3.00;;
75916;SDS011;64595;50.148;14.334;2023-07-13T08:26:09;3.95;;;2.75;;
75916;SDS011;64595;50.148;14.334;2023-07-13T08:28:36;3.63;;;2.90;;
75916;SDS011;64595;50.148;14.334;2023-07-13T08:31:02;5.68;;;2.60;;
75916;SDS011;64595;50.148;14.334;2023-07-13T08:33:28;6.13;;;3.40;;
75916;SDS011;64595;50.148;14.334;2023-07-13T08:35:53;2.92;;;2.60;;
75916;SDS011;64595;50.148;14.334;2023-07-13T08:38:19;3.63;;;2.72;;
75916;SDS011;64595;50.148;14.334;2023-07-13T08:40:45;5.18;;;3.60;;
75916;SDS011;64595;50.148;14.334;2023-07-13T08:43:16;4.32;;;3.15;;
75916;SDS011;64595;50.148;14.334;2023-07-13T08:45:46;4.00;;;2.72;;
75916;SDS011;64595;50.148;14.334;2023-07-13T08:48:14;4.22;;;2.90;;
75916;SDS011;64595;50.148;14.334;2023-07-13T08:50:46;3.60;;;2.92;;
75916;SDS011;64595;50.148;14.334;2023-07-13T08:53:13;4.95;;;3.10;;
75916;SDS011;64595;50.148;14.334;2023-07-13T08:55:40;5.03;;;3.00;;
75916;SDS011;64595;50.148;14.334;2023-07-13T08:58:09;4.10;;;2.83;;
75916;SDS011;64595;50.148;14.334;2023-07-13T09:00:38;3.85;;;2.58;;
75916;SDS011;64595;50.148;14.334;2023-07-13T09:03:18;5.13;;;2.83;;
75916;SDS011;64595;50.148;14.334;2023-07-13T09:05:46;3.78;;;2.60;;
75916;SDS011;64595;50.148;14.334;2023-07-13T09:08:19;4.50;;;2.50;;
75916;SDS011;64595;50.148;14.334;2023-07-13T09:11:00;3.72;;;2.70;;
75916;SDS011;64595;50.148;14.334;2023-07-13T09:13:31;3.63;;;2.55;;
75916;SDS011;64595;50.148;14.334;2023-07-13T09:16:03;4.22;;;2.60;;
75916;SDS011;64595;50.148;14.334;2023-07-13T09:18:31;4.47;;;2.70;;
75916;SDS011;64595;50.148;14.334;2023-07-13T09:20:58;5.35;;;2.40;;
75916;SDS011;64595;50.148;14.334;2023-07-13T09:23:27;3.13;;;2.10;;
75916;SDS011;64595;50.148;14.334;2023-07-13T09:25:55;4.65;;;3.10;;
75916;SDS011;64595;50.148;14.334;2023-07-13T09:28:26;3.08;;;2.30;;
75916;SDS011;64595;50.148;14.334;2023-07-13T09:30:55;4.13;;;2.53;;
75916;SDS011;64595;50.148;14.334;2023-07-13T09:33:23;5.70;;;2.50;;
75916;SDS011;64595;50.148;14.334;2023-07-13T09:35:48;5.53;;;2.88;;
75916;SDS011;64595;50.148;14.334;2023-07-13T09:38:15;3.70;;;2.70;;
75916;SDS011;64595;50.148;14.334;2023-07-13T09:40:44;4.22;;;2.53;;
75916;SDS011;64595;50.148;14.334;2023-07-13T09:43:22;3.90;;;2.22;;
75916;SDS011;64595;50.148;14.334;2023-07-13T09:45:47;3.22;;;2.28;;
75916;SDS011;64595;50.148;14.334;2023-07-13T09:48:13;3.33;;;2.28;;
75916;SDS011;64595;50.148;14.334;2023-07-13T09:50:41;5.57;;;2.47;;
75916;SDS011;64595;50.148;14.334;2023-07-13T09:53:11;5.15;;;2.50;;
75916;SDS011;64595;50.148;14.334;2023-07-13T09:55:38;5.18;;;2.38;;
75916;SDS011;64595;50.148;14.334;2023-07-13T09:58:04;3.40;;;2.13;;
75916;SDS011;64595;50.148;14.334;2023-07-13T10:00:30;5.40;;;2.33;;
75916;SDS011;64595;50.148;14.334;2023-07-13T10:03:03;3.05;;;2.28;;
75916;SDS011;64595;50.148;14.334;2023-07-13T10:05:36;5.28;;;2.30;;
75916;SDS011;64595;50.148;14.334;2023-07-13T10:08:04;3.75;;;2.38;;
75916;SDS011;64595;50.148;14.334;2023-07-13T10:10:30;3.35;;;2.17;;
75916;SDS011;64595;50.148;14.334;2023-07-13T10:12:55;3.45;;;2.20;;
75916;SDS011;64595;50.148;14.334;2023-07-13T10:15:22;3.50;;;2.38;;
75916;SDS011;64595;50.148;14.334;2023-07-13T10:17:49;4.47;;;2.38;;
75916;SDS011;64595;50.148;14.334;2023-07-13T10:20:15;3.97;;;2.33;;
75916;SDS011;64595;50.148;14.334;2023-07-13T10:22:42;5.32;;;2.60;;
75916;SDS011;64595;50.148;14.334;2023-07-13T10:25:16;4.43;;;2.42;;
75916;SDS011;64595;50.148;14.334;2023-07-13T10:27:42;5.85;;;2.60;;
75916;SDS011;64595;50.148;14.334;2023-07-13T10:30:11;3.65;;;2.47;;
75916;SDS011;64595;50.148;14.334;2023-07-13T10:32:38;3.28;;;2.35;;
75916;SDS011;64595;50.148;14.334;2023-07-13T10:35:05;3.35;;;2.35;;
75916;SDS011;64595;50.148;14.334;2023-07-13T10:37:40;4.38;;;2.28;;
75916;SDS011;64595;50.148;14.334;2023-07-13T10:40:11;3.20;;;2.40;;
75916;SDS011;64595;50.148;14.334;2023-07-13T10:42:43;3.85;;;2.20;;
75916;SDS011;64595;50.148;14.334;2023-07-13T10:45:14;3.80;;;2.30;;
75916;SDS011;64595;50.148;14.334;2023-07-13T10:47:40;2.97;;;2.15;;
75916;SDS011;64595;50.148;14.334;2023-07-13T10:50:07;3.10;;;2.30;;
75916;SDS011;64595;50.148;14.334;2023-07-13T10:52:41;3.30;;;2.30;;
75916;SDS011;64595;50.148;14.334;2023-07-13T10:58:00;3.65;;;2.20;;
75916;SDS011;64595;50.148;14.334;2023-07-13T11:00:25;2.83;;;2.20;;
75916;SDS011;64595;50.148;14.334;2023-07-13T11:02:57;3.50;;;1.85;;
75916;SDS011;64595;50.148;14.334;2023-07-13T11:05:26;3.85;;;2.33;;
75916;SDS011;64595;50.148;14.334;2023-07-13T11:07:56;3.38;;;2.42;;
75916;SDS011;64595;50.148;14.334;2023-07-13T11:10:47;3.80;;;2.17;;
75916;SDS011;64595;50.148;14.334;2023-07-13T11:16:01;3.78;;;2.33;;
75916;SDS011;64595;50.148;14.334;2023-07-13T11:18:37;3.80;;;2.15;;
75916;SDS011;64595;50.148;14.334;2023-07-13T11:21:13;4.00;;;2.00;;
75916;SDS011;64595;50.148;14.334;2023-07-13T11:23:41;3.50;;;2.10;;
75916;SDS011;64595;50.148;14.334;2023-07-13T11:29:07;3.63;;;2.25;;
75916;SDS011;64595;50.148;14.334;2023-07-13T11:31:33;3.92;;;2.22;;
75916;SDS011;64595;50.148;14.334;2023-07-13T11:33:59;3.33;;;2.13;;
75916;SDS011;64595;50.148;14.334;2023-07-13T11:36:29;5.07;;;2.30;;
75916;SDS011;64595;50.148;14.334;2023-07-13T11:38:58;4.03;;;2.15;;
75916;SDS011;64595;50.148;14.334;2023-07-13T11:41:27;5.70;;;2.25;;
75916;SDS011;64595;50.148;14.334;2023-07-13T11:44:05;6.90;;;2.55;;
75916;SDS011;64595;50.148;14.334;2023-07-13T11:46:32;3.97;;;1.95;;
75916;SDS011;64595;50.148;14.334;2023-07-13T11:48:57;5.80;;;2.38;;
75916;SDS011;64595;50.148;14.334;2023-07-13T11:51:23;3.70;;;2.20;;
75916;SDS011;64595;50.148;14.334;2023-07-13T11:53:52;4.90;;;2.22;;
75916;SDS011;64595;50.148;14.334;2023-07-13T11:56:19;5.80;;;2.60;;
75916;SDS011;64595;50.148;14.334;2023-07-13T11:58:47;4.15;;;2.75;;
75916;SDS011;64595;50.148;14.334;2023-07-13T12:01:16;28.50;;;20.40;;
75916;SDS011;64595;50.148;14.334;2023-07-13T12:03:45;6.95;;;3.65;;
75916;SDS011;64595;50.148;14.334;2023-07-13T12:06:19;4.70;;;2.40;;
75916;SDS011;64595;50.148;14.334;2023-07-13T12:08:49;3.30;;;2.67;;
75916;SDS011;64595;50.148;14.334;2023-07-13T12:11:15;3.40;;;2.60;;
75916;SDS011;64595;50.148;14.334;2023-07-13T12:13:41;3.50;;;2.53;;
75916;SDS011;64595;50.148;14.334;2023-07-13T12:16:10;4.85;;;2.50;;
75916;SDS011;64595;50.148;14.334;2023-07-13T12:18:38;5.68;;;2.60;;
75916;SDS011;64595;50.148;14.334;2023-07-13T12:21:04;3.97;;;2.15;;
75916;SDS011;64595;50.148;14.334;2023-07-13T12:23:30;6.30;;;2.60;;
75916;SDS011;64595;50.148;14.334;2023-07-13T12:25:57;5.55;;;2.70;;
75916;SDS011;64595;50.148;14.334;2023-07-13T12:28:30;5.25;;;2.40;;
75916;SDS011;64595;50.148;14.334;2023-07-13T12:30:57;3.53;;;2.25;;
75916;SDS011;64595;50.148;14.334;2023-07-13T12:33:23;3.60;;;1.92;;
75916;SDS011;64595;50.148;14.334;2023-07-13T12:35:53;4.53;;;2.30;;
75916;SDS011;64595;50.148;14.334;2023-07-13T12:38:19;9.70;;;2.47;;
75916;SDS011;64595;50.148;14.334;2023-07-13T12:40:44;3.58;;;2.30;;
75916;SDS011;64595;50.148;14.334;2023-07-13T12:43:14;4.70;;;2.50;;
75916;SDS011;64595;50.148;14.334;2023-07-13T12:45:53;3.53;;;2.38;;
75916;SDS011;64595;50.148;14.334;2023-07-13T12:48:27;4.03;;;2.20;;
75916;SDS011;64595;50.148;14.334;2023-07-13T12:50:54;6.18;;;2.35;;
75916;SDS011;64595;50.148;14.334;2023-07-13T12:53:21;5.20;;;2.50;;
75916;SDS011;64595;50.148;14.334;2023-07-13T12:55:52;4.70;;;2.70;;
75916;SDS011;64595;50.148;14.334;2023-07-13T12:58:21;3.22;;;2.47;;
75916;SDS011;64595;50.148;14.334;2023-07-13T13:00:50;7.50;;;2.60;;
75916;SDS011;64595;50.148;14.334;2023-07-13T13:03:21;5.07;;;2.40;;
75916;SDS011;64595;50.148;14.334;2023-07-13T13:05:49;4.00;;;2.53;;
75916;SDS011;64595;50.148;14.334;2023-07-13T13:08:23;5.18;;;2.90;;
75916;SDS011;64595;50.148;14.334;2023-07-13T13:10:49;5.57;;;2.78;;
75916;SDS011;64595;50.148;14.334;2023-07-13T13:13:14;5.57;;;2.92;;
75916;SDS011;64595;50.148;14.334;2023-07-13T13:15:39;3.50;;;2.30;;
75916;SDS011;64595;50.148;14.334;2023-07-13T13:18:09;6.68;;;2.50;;
75916;SDS011;64595;50.148;14.334;2023-07-13T13:20:40;4.75;;;2.30;;
75916;SDS011;64595;50.148;14.334;2023-07-13T13:23:08;5.22;;;2.80;;
75916;SDS011;64595;50.148;14.334;2023-07-13T13:25:36;5.53;;;2.33;;
75916;SDS011;64595;50.148;14.334;2023-07-13T13:28:02;3.90;;;2.60;;
75916;SDS011;64595;50.148;14.334;2023-07-13T13:30:27;4.15;;;2.53;;
75916;SDS011;64595;50.148;14.334;2023-07-13T13:32:53;4.40;;;2.25;;
75916;SDS011;64595;50.148;14.334;2023-07-13T13:35:19;6.35;;;2.33;;
75916;SDS011;64595;50.148;14.334;2023-07-13T13:37:45;3.35;;;2.30;;
75916;SDS011;64595;50.148;14.334;2023-07-13T13:40:16;3.90;;;2.20;;
75916;SDS011;64595;50.148;14.334;2023-07-13T13:42:43;6.00;;;2.50;;
75916;SDS011;64595;50.148;14.334;2023-07-13T13:45:09;4.55;;;2.38;;
75916;SDS011;64595;50.148;14.334;2023-07-13T13:47:35;4.90;;;2.28;;
75916;SDS011;64595;50.148;14.334;2023-07-13T13:50:01;4.43;;;2.50;;
75916;SDS011;64595;50.148;14.334;2023-07-13T13:52:27;2.97;;;2.10;;
75916;SDS011;64595;50.148;14.334;2023-07-13T13:54:52;4.68;;;2.40;;
75916;SDS011;64595;50.148;14.334;2023-07-13T13:57:19;3.40;;;2.30;;
75916;SDS011;64595;50.148;14.334;2023-07-13T13:59:45;4.90;;;2.00;;
75916;SDS011;64595;50.148;14.334;2023-07-13T14:02:16;4.55;;;2.55;;
75916;SDS011;64595;50.148;14.334;2023-07-13T14:04:47;4.07;;;2.30;;
75916;SDS011;64595;50.148;14.334;2023-07-13T14:07:14;4.30;;;2.28;;
75916;SDS011;64595;50.148;14.334;2023-07-13T14:09:40;3.78;;;2.30;;
75916;SDS011;64595;50.148;14.334;2023-07-13T14:12:08;5.45;;;2.50;;
75916;SDS011;64595;50.148;14.334;2023-07-13T14:14:35;4.88;;;2.63;;
75916;SDS011;64595;50.148;14.334;2023-07-13T14:19:26;5.57;;;2.50;;
75916;SDS011;64595;50.148;14.334;2023-07-13T14:21:52;5.07;;;2.97;;
75916;SDS011;64595;50.148;14.334;2023-07-13T14:24:17;3.55;;;2.67;;
75916;SDS011;64595;50.148;14.334;2023-07-13T14:26:43;3.35;;;2.90;;
75916;SDS011;64595;50.148;14.334;2023-07-13T14:29:11;7.05;;;3.00;;
75916;SDS011;64595;50.148;14.334;2023-07-13T14:31:39;3.60;;;2.40;;
75916;SDS011;64595;50.148;14.334;2023-07-13T14:36:30;3.40;;;2.30;;
75916;SDS011;64595;50.148;14.334;2023-07-13T14:38:57;4.63;;;2.63;;
75916;SDS011;64595;50.148;14.334;2023-07-13T14:41:24;4.53;;;2.90;;
75916;SDS011;64595;50.148;14.334;2023-07-13T14:43:49;3.45;;;2.55;;
75916;SDS011;64595;50.148;14.334;2023-07-13T14:46:29;3.67;;;2.45;;
75916;SDS011;64595;50.148;14.334;2023-07-13T14:49:00;4.45;;;2.50;;